Lake Shore, Maryland
Current Conditions -  °F | °C
As of 12:14 PM on Wednesday 26 Nov 2014 (Local Time) from KNAK Reporting Station
Light Snow Light Snow  
Wind Chill: 29°   Ceiling: 800
Heat Index: 35°   Visibility: 2.5mi
Dew Point: 33°   Wind: 7mph
Humidity: 92%   Direction: 350°N
Pressure: 29.98"   Gusts: NA
Location:  39.11°N, 76.49°W
Report Text: KNAK 261714Z AUTO 35006KT 2 1/2SM -SN BR BKN008 OVC019 02/01 A2998 RMK AO2 P0003 T00170006
Loading
Personal Weather Stations






























Interactive Weather Map New forecast layout! Learn more

10-Day Weather Forecast

Advertisements
Track Severe Weather on mobile